ヴォルゴグラード の空港の天気 - METARとTAF

ヴォルゴグラード国際空港 ( URWW / VOG ) - ロシア ヴォルゴグラード
飛行場実況気象(Metar)
観測時間09/30 09:30 MSK (09/30 06:30 UTC)
風向・風速東南東 9m/s
視程10km以上
天気現象
なし
気温17℃
湿度29%
気圧1023hPa
METARURWW 300630Z 12009MPS CAVOK 17/M01 Q1023 R06/010070 TEMPO 11009G15MPS
過去の天気等 Google飛行場航空写真 Wunderground天気予報

過去48時間のMETAR

飛行場予報(TAF)
発表時間: 9/30 08:00 MSK (9/30 05:00 UTC)
予報対象時間: 30日9時 MSK ~ 30日18時 MSK
風向・風速東 9m/s 瞬間風速 14m/s
視程10km以上
全天の4割程度の雲 雲底高度 1220m
30日9時 MSK ~ 30日18時 MSK に一時的に
風向・風速南東 12m/s 瞬間風速 18m/s
TAF URWW 300500Z 3006/3015 10009G14MPS 9999 SCT040
TEMPO 3006/3015 13012G18MPS